sensor_id;sensor_type;location;lat;lon;timestamp;P1;durP1;ratioP1;P2;durP2;ratioP2
20417;SDS011;10368;51.436;6.774;2022-07-04T00:00:53;1.75;;;1.55;;
20417;SDS011;10368;51.436;6.774;2022-07-04T00:03:21;4.10;;;1.65;;
20417;SDS011;10368;51.436;6.774;2022-07-04T00:05:48;4.20;;;1.75;;
20417;SDS011;10368;51.436;6.774;2022-07-04T00:08:15;3.05;;;1.80;;
20417;SDS011;10368;51.436;6.774;2022-07-04T00:10:43;4.18;;;1.77;;
20417;SDS011;10368;51.436;6.774;2022-07-04T00:13:10;3.83;;;1.65;;
20417;SDS011;10368;51.436;6.774;2022-07-04T00:15:38;5.53;;;2.10;;
20417;SDS011;10368;51.436;6.774;2022-07-04T00:18:05;2.08;;;1.88;;
20417;SDS011;10368;51.436;6.774;2022-07-04T00:20:32;4.13;;;2.67;;
20417;SDS011;10368;51.436;6.774;2022-07-04T00:23:00;2.63;;;1.75;;
20417;SDS011;10368;51.436;6.774;2022-07-04T00:25:27;5.82;;;2.72;;
20417;SDS011;10368;51.436;6.774;2022-07-04T00:27:55;5.07;;;2.03;;
20417;SDS011;10368;51.436;6.774;2022-07-04T00:30:22;4.63;;;1.88;;
20417;SDS011;10368;51.436;6.774;2022-07-04T00:32:49;3.58;;;2.00;;
20417;SDS011;10368;51.436;6.774;2022-07-04T00:35:17;5.68;;;1.70;;
20417;SDS011;10368;51.436;6.774;2022-07-04T00:37:44;18.02;;;2.30;;
20417;SDS011;10368;51.436;6.774;2022-07-04T00:40:12;2.38;;;1.90;;
20417;SDS011;10368;51.436;6.774;2022-07-04T00:42:39;3.20;;;1.77;;
20417;SDS011;10368;51.436;6.774;2022-07-04T00:45:07;3.67;;;1.95;;
20417;SDS011;10368;51.436;6.774;2022-07-04T00:47:34;7.47;;;1.70;;
20417;SDS011;10368;51.436;6.774;2022-07-04T00:50:01;6.47;;;2.75;;
20417;SDS011;10368;51.436;6.774;2022-07-04T00:52:29;5.82;;;2.15;;
20417;SDS011;10368;51.436;6.774;2022-07-04T00:54:56;2.50;;;1.80;;
20417;SDS011;10368;51.436;6.774;2022-07-04T00:57:26;5.43;;;2.40;;
20417;SDS011;10368;51.436;6.774;2022-07-04T00:59:54;8.82;;;3.60;;
20417;SDS011;10368;51.436;6.774;2022-07-04T01:02:21;11.27;;;3.08;;
20417;SDS011;10368;51.436;6.774;2022-07-04T01:04:48;4.78;;;2.45;;
20417;SDS011;10368;51.436;6.774;2022-07-04T01:07:17;3.30;;;1.88;;
20417;SDS011;10368;51.436;6.774;2022-07-04T01:09:44;5.13;;;2.58;;
20417;SDS011;10368;51.436;6.774;2022-07-04T01:12:23;8.38;;;7.57;;
20417;SDS011;10368;51.436;6.774;2022-07-04T01:14:51;4.15;;;2.80;;
20417;SDS011;10368;51.436;6.774;2022-07-04T01:17:18;4.55;;;2.13;;
20417;SDS011;10368;51.436;6.774;2022-07-04T01:19:45;5.60;;;2.35;;
20417;SDS011;10368;51.436;6.774;2022-07-04T01:22:13;5.28;;;2.35;;
20417;SDS011;10368;51.436;6.774;2022-07-04T01:24:41;4.78;;;2.75;;
20417;SDS011;10368;51.436;6.774;2022-07-04T01:27:09;4.47;;;3.10;;
20417;SDS011;10368;51.436;6.774;2022-07-04T01:29:36;2.45;;;2.00;;
20417;SDS011;10368;51.436;6.774;2022-07-04T01:32:05;4.72;;;2.42;;
20417;SDS011;10368;51.436;6.774;2022-07-04T01:34:32;9.98;;;3.53;;
20417;SDS011;10368;51.436;6.774;2022-07-04T01:37:06;7.30;;;2.65;;
20417;SDS011;10368;51.436;6.774;2022-07-04T01:39:33;8.00;;;2.42;;
20417;SDS011;10368;51.436;6.774;2022-07-04T01:42:01;7.95;;;2.95;;
20417;SDS011;10368;51.436;6.774;2022-07-04T01:44:28;3.22;;;2.38;;
20417;SDS011;10368;51.436;6.774;2022-07-04T01:46:56;5.15;;;2.78;;
20417;SDS011;10368;51.436;6.774;2022-07-04T01:49:23;2.65;;;2.22;;
20417;SDS011;10368;51.436;6.774;2022-07-04T01:51:50;5.60;;;2.55;;
20417;SDS011;10368;51.436;6.774;2022-07-04T01:54:18;5.10;;;2.25;;
20417;SDS011;10368;51.436;6.774;2022-07-04T01:56:45;5.82;;;2.70;;
20417;SDS011;10368;51.436;6.774;2022-07-04T01:59:16;3.42;;;2.95;;
20417;SDS011;10368;51.436;6.774;2022-07-04T02:01:44;3.47;;;2.38;;
20417;SDS011;10368;51.436;6.774;2022-07-04T02:04:11;6.13;;;2.78;;
20417;SDS011;10368;51.436;6.774;2022-07-04T02:06:38;7.95;;;2.55;;
20417;SDS011;10368;51.436;6.774;2022-07-04T02:09:06;3.45;;;2.30;;
20417;SDS011;10368;51.436;6.774;2022-07-04T02:11:44;4.30;;;2.67;;
20417;SDS011;10368;51.436;6.774;2022-07-04T02:14:31;4.45;;;3.15;;
20417;SDS011;10368;51.436;6.774;2022-07-04T02:16:59;4.70;;;3.20;;
20417;SDS011;10368;51.436;6.774;2022-07-04T02:19:26;3.55;;;2.90;;
20417;SDS011;10368;51.436;6.774;2022-07-04T02:21:54;4.07;;;3.10;;
20417;SDS011;10368;51.436;6.774;2022-07-04T02:24:21;6.35;;;2.90;;
20417;SDS011;10368;51.436;6.774;2022-07-04T02:26:48;3.83;;;2.78;;
20417;SDS011;10368;51.436;6.774;2022-07-04T02:29:16;6.40;;;3.00;;
20417;SDS011;10368;51.436;6.774;2022-07-04T02:31:45;3.53;;;2.80;;
20417;SDS011;10368;51.436;6.774;2022-07-04T02:34:13;5.80;;;2.75;;
20417;SDS011;10368;51.436;6.774;2022-07-04T02:36:40;5.97;;;2.55;;
20417;SDS011;10368;51.436;6.774;2022-07-04T02:39:08;4.18;;;2.72;;
20417;SDS011;10368;51.436;6.774;2022-07-04T02:41:35;4.75;;;3.47;;
20417;SDS011;10368;51.436;6.774;2022-07-04T02:44:03;7.88;;;6.03;;
20417;SDS011;10368;51.436;6.774;2022-07-04T02:46:30;6.22;;;3.75;;
20417;SDS011;10368;51.436;6.774;2022-07-04T02:48:59;6.97;;;3.75;;
20417;SDS011;10368;51.436;6.774;2022-07-04T02:51:26;10.02;;;3.00;;
20417;SDS011;10368;51.436;6.774;2022-07-04T02:53:54;5.28;;;2.28;;
20417;SDS011;10368;51.436;6.774;2022-07-04T02:56:21;5.32;;;3.30;;
20417;SDS011;10368;51.436;6.774;2022-07-04T02:58:48;4.78;;;2.75;;
20417;SDS011;10368;51.436;6.774;2022-07-04T03:01:16;5.80;;;2.85;;
20417;SDS011;10368;51.436;6.774;2022-07-04T03:03:46;5.25;;;2.85;;
20417;SDS011;10368;51.436;6.774;2022-07-04T03:06:18;3.55;;;2.50;;
20417;SDS011;10368;51.436;6.774;2022-07-04T03:08:46;3.95;;;2.50;;
20417;SDS011;10368;51.436;6.774;2022-07-04T03:11:16;5.10;;;2.40;;
20417;SDS011;10368;51.436;6.774;2022-07-04T03:13:46;3.05;;;2.50;;
20417;SDS011;10368;51.436;6.774;2022-07-04T03:16:14;6.82;;;2.92;;
20417;SDS011;10368;51.436;6.774;2022-07-04T03:18:42;7.15;;;3.47;;
20417;SDS011;10368;51.436;6.774;2022-07-04T03:21:09;3.97;;;2.75;;
20417;SDS011;10368;51.436;6.774;2022-07-04T03:23:38;3.63;;;2.67;;
20417;SDS011;10368;51.436;6.774;2022-07-04T03:26:05;6.45;;;3.08;;
20417;SDS011;10368;51.436;6.774;2022-07-04T03:28:32;5.85;;;3.40;;
20417;SDS011;10368;51.436;6.774;2022-07-04T03:31:00;11.02;;;6.88;;
20417;SDS011;10368;51.436;6.774;2022-07-04T03:33:27;5.70;;;3.67;;
20417;SDS011;10368;51.436;6.774;2022-07-04T03:35:55;5.63;;;3.30;;
20417;SDS011;10368;51.436;6.774;2022-07-04T03:38:22;4.90;;;3.15;;
20417;SDS011;10368;51.436;6.774;2022-07-04T03:40:49;6.25;;;3.15;;
20417;SDS011;10368;51.436;6.774;2022-07-04T03:43:17;3.28;;;2.92;;
20417;SDS011;10368;51.436;6.774;2022-07-04T03:45:44;6.25;;;3.42;;
20417;SDS011;10368;51.436;6.774;2022-07-04T03:48:12;3.65;;;2.75;;
20417;SDS011;10368;51.436;6.774;2022-07-04T03:50:40;4.30;;;2.83;;
20417;SDS011;10368;51.436;6.774;2022-07-04T03:53:39;8.85;;;3.10;;
20417;SDS011;10368;51.436;6.774;2022-07-04T03:56:06;5.88;;;3.05;;
20417;SDS011;10368;51.436;6.774;2022-07-04T03:58:34;4.05;;;3.00;;
20417;SDS011;10368;51.436;6.774;2022-07-04T04:01:04;4.97;;;3.20;;
20417;SDS011;10368;51.436;6.774;2022-07-04T04:03:32;6.88;;;2.80;;
20417;SDS011;10368;51.436;6.774;2022-07-04T04:06:18;6.60;;;3.25;;
20417;SDS011;10368;51.436;6.774;2022-07-04T04:08:45;5.50;;;2.92;;
20417;SDS011;10368;51.436;6.774;2022-07-04T04:11:15;7.45;;;3.25;;
20417;SDS011;10368;51.436;6.774;2022-07-04T04:13:42;5.97;;;3.70;;
20417;SDS011;10368;51.436;6.774;2022-07-04T04:16:10;7.17;;;3.10;;
20417;SDS011;10368;51.436;6.774;2022-07-04T04:18:37;4.03;;;3.20;;
20417;SDS011;10368;51.436;6.774;2022-07-04T04:21:04;3.73;;;3.10;;
20417;SDS011;10368;51.436;6.774;2022-07-04T04:23:32;4.95;;;3.55;;
20417;SDS011;10368;51.436;6.774;2022-07-04T04:25:59;5.28;;;3.40;;
20417;SDS011;10368;51.436;6.774;2022-07-04T04:28:26;7.32;;;3.40;;
20417;SDS011;10368;51.436;6.774;2022-07-04T04:30:54;3.78;;;3.35;;
20417;SDS011;10368;51.436;6.774;2022-07-04T04:33:21;5.85;;;3.55;;
20417;SDS011;10368;51.436;6.774;2022-07-04T04:35:48;4.90;;;3.80;;
20417;SDS011;10368;51.436;6.774;2022-07-04T04:38:16;5.72;;;3.40;;
20417;SDS011;10368;51.436;6.774;2022-07-04T04:40:44;5.77;;;3.87;;
20417;SDS011;10368;51.436;6.774;2022-07-04T04:43:11;10.50;;;4.47;;
20417;SDS011;10368;51.436;6.774;2022-07-04T04:45:38;7.97;;;4.40;;
20417;SDS011;10368;51.436;6.774;2022-07-04T04:48:06;7.97;;;4.00;;
20417;SDS011;10368;51.436;6.774;2022-07-04T04:50:33;5.30;;;3.90;;
20417;SDS011;10368;51.436;6.774;2022-07-04T04:53:01;7.72;;;3.95;;
20417;SDS011;10368;51.436;6.774;2022-07-04T04:55:29;7.13;;;4.03;;
20417;SDS011;10368;51.436;6.774;2022-07-04T04:57:56;7.10;;;4.93;;
20417;SDS011;10368;51.436;6.774;2022-07-04T05:00:23;7.63;;;4.45;;
20417;SDS011;10368;51.436;6.774;2022-07-04T05:02:51;4.80;;;4.30;;
20417;SDS011;10368;51.436;6.774;2022-07-04T05:05:19;6.72;;;4.93;;
20417;SDS011;10368;51.436;6.774;2022-07-04T05:07:47;6.93;;;5.05;;
20417;SDS011;10368;51.436;6.774;2022-07-04T05:10:15;5.68;;;4.97;;
20417;SDS011;10368;51.436;6.774;2022-07-04T05:12:45;7.25;;;4.88;;
20417;SDS011;10368;51.436;6.774;2022-07-04T05:15:15;5.57;;;5.05;;
20417;SDS011;10368;51.436;6.774;2022-07-04T05:17:43;5.95;;;4.68;;
20417;SDS011;10368;51.436;6.774;2022-07-04T05:20:11;9.38;;;5.25;;
20417;SDS011;10368;51.436;6.774;2022-07-04T05:22:38;11.55;;;8.98;;
20417;SDS011;10368;51.436;6.774;2022-07-04T05:25:06;8.73;;;5.57;;
20417;SDS011;10368;51.436;6.774;2022-07-04T05:27:33;7.70;;;5.45;;
20417;SDS011;10368;51.436;6.774;2022-07-04T05:30:01;6.82;;;5.00;;
20417;SDS011;10368;51.436;6.774;2022-07-04T05:32:28;7.93;;;5.60;;
20417;SDS011;10368;51.436;6.774;2022-07-04T05:34:55;6.97;;;5.15;;
20417;SDS011;10368;51.436;6.774;2022-07-04T05:37:24;8.95;;;5.53;;
20417;SDS011;10368;51.436;6.774;2022-07-04T05:39:52;7.65;;;5.60;;
20417;SDS011;10368;51.436;6.774;2022-07-04T05:42:19;11.15;;;5.50;;
20417;SDS011;10368;51.436;6.774;2022-07-04T05:44:47;8.82;;;6.50;;
20417;SDS011;10368;51.436;6.774;2022-07-04T05:47:14;9.20;;;5.90;;
20417;SDS011;10368;51.436;6.774;2022-07-04T05:49:41;7.25;;;5.53;;
20417;SDS011;10368;51.436;6.774;2022-07-04T05:52:08;9.45;;;5.35;;
20417;SDS011;10368;51.436;6.774;2022-07-04T05:54:36;8.02;;;6.20;;
20417;SDS011;10368;51.436;6.774;2022-07-04T05:57:03;7.05;;;5.10;;
20417;SDS011;10368;51.436;6.774;2022-07-04T05:59:31;11.95;;;6.72;;
20417;SDS011;10368;51.436;6.774;2022-07-04T06:01:58;13.40;;;7.40;;
20417;SDS011;10368;51.436;6.774;2022-07-04T06:04:26;10.40;;;7.30;;
20417;SDS011;10368;51.436;6.774;2022-07-04T06:06:53;10.65;;;7.13;;
20417;SDS011;10368;51.436;6.774;2022-07-04T06:09:20;17.23;;;7.15;;
20417;SDS011;10368;51.436;6.774;2022-07-04T06:11:48;10.57;;;6.78;;
20417;SDS011;10368;51.436;6.774;2022-07-04T06:14:15;12.27;;;6.43;;
20417;SDS011;10368;51.436;6.774;2022-07-04T06:16:43;9.77;;;5.60;;
20417;SDS011;10368;51.436;6.774;2022-07-04T06:19:10;8.10;;;4.78;;
20417;SDS011;10368;51.436;6.774;2022-07-04T06:21:37;10.55;;;3.90;;
20417;SDS011;10368;51.436;6.774;2022-07-04T06:24:05;4.53;;;3.58;;
20417;SDS011;10368;51.436;6.774;2022-07-04T06:26:32;6.07;;;4.57;;
20417;SDS011;10368;51.436;6.774;2022-07-04T06:28:59;10.95;;;4.28;;
20417;SDS011;10368;51.436;6.774;2022-07-04T06:31:27;8.88;;;4.00;;
20417;SDS011;10368;51.436;6.774;2022-07-04T06:33:54;5.57;;;4.75;;
20417;SDS011;10368;51.436;6.774;2022-07-04T06:36:40;8.55;;;5.38;;
20417;SDS011;10368;51.436;6.774;2022-07-04T06:39:07;9.00;;;4.47;;
20417;SDS011;10368;51.436;6.774;2022-07-04T06:41:34;8.82;;;4.85;;
20417;SDS011;10368;51.436;6.774;2022-07-04T06:44:02;7.82;;;4.40;;
20417;SDS011;10368;51.436;6.774;2022-07-04T06:46:29;5.78;;;4.45;;
20417;SDS011;10368;51.436;6.774;2022-07-04T06:48:57;7.07;;;4.35;;
20417;SDS011;10368;51.436;6.774;2022-07-04T06:51:25;5.30;;;4.00;;
20417;SDS011;10368;51.436;6.774;2022-07-04T06:53:52;16.33;;;3.75;;
20417;SDS011;10368;51.436;6.774;2022-07-04T06:56:19;6.60;;;3.72;;
20417;SDS011;10368;51.436;6.774;2022-07-04T06:58:47;10.13;;;3.80;;
20417;SDS011;10368;51.436;6.774;2022-07-04T07:01:14;5.85;;;3.08;;
20417;SDS011;10368;51.436;6.774;2022-07-04T07:03:42;3.65;;;3.20;;
20417;SDS011;10368;51.436;6.774;2022-07-04T07:06:10;6.97;;;3.15;;
20417;SDS011;10368;51.436;6.774;2022-07-04T07:08:37;4.10;;;2.88;;
20417;SDS011;10368;51.436;6.774;2022-07-04T07:11:05;7.97;;;3.33;;
20417;SDS011;10368;51.436;6.774;2022-07-04T07:13:44;6.90;;;4.03;;
20417;SDS011;10368;51.436;6.774;2022-07-04T07:16:14;4.70;;;3.28;;
20417;SDS011;10368;51.436;6.774;2022-07-04T07:18:41;4.60;;;3.33;;
20417;SDS011;10368;51.436;6.774;2022-07-04T07:21:09;4.18;;;2.78;;
20417;SDS011;10368;51.436;6.774;2022-07-04T07:23:37;2.45;;;1.92;;
20417;SDS011;10368;51.436;6.774;2022-07-04T07:26:05;6.57;;;2.08;;
20417;SDS011;10368;51.436;6.774;2022-07-04T07:28:33;4.80;;;2.20;;
20417;SDS011;10368;51.436;6.774;2022-07-04T07:31:01;4.72;;;2.30;;
20417;SDS011;10368;51.436;6.774;2022-07-04T07:33:28;3.20;;;1.60;;
20417;SDS011;10368;51.436;6.774;2022-07-04T07:35:55;3.95;;;1.65;;
20417;SDS011;10368;51.436;6.774;2022-07-04T07:38:23;2.88;;;1.45;;
20417;SDS011;10368;51.436;6.774;2022-07-04T07:40:50;3.72;;;1.17;;
20417;SDS011;10368;51.436;6.774;2022-07-04T07:43:20;3.67;;;1.45;;
20417;SDS011;10368;51.436;6.774;2022-07-04T07:45:48;2.65;;;1.13;;
20417;SDS011;10368;51.436;6.774;2022-07-04T07:48:15;2.67;;;1.58;;
20417;SDS011;10368;51.436;6.774;2022-07-04T07:50:45;4.38;;;1.80;;
20417;SDS011;10368;51.436;6.774;2022-07-04T07:53:13;2.55;;;1.25;;
20417;SDS011;10368;51.436;6.774;2022-07-04T07:55:40;2.85;;;1.20;;
20417;SDS011;10368;51.436;6.774;2022-07-04T07:58:08;2.13;;;1.08;;
20417;SDS011;10368;51.436;6.774;2022-07-04T08:00:35;3.88;;;1.00;;
20417;SDS011;10368;51.436;6.774;2022-07-04T08:03:21;2.13;;;1.13;;
20417;SDS011;10368;51.436;6.774;2022-07-04T08:06:07;3.33;;;1.20;;
20417;SDS011;10368;51.436;6.774;2022-07-04T08:08:35;2.65;;;1.00;;
20417;SDS011;10368;51.436;6.774;2022-07-04T08:11:03;3.63;;;1.40;;
20417;SDS011;10368;51.436;6.774;2022-07-04T08:13:30;6.30;;;1.20;;
20417;SDS011;10368;51.436;6.774;2022-07-04T08:15:57;2.83;;;1.35;;
20417;SDS011;10368;51.436;6.774;2022-07-04T08:18:25;1.67;;;1.30;;
20417;SDS011;10368;51.436;6.774;2022-07-04T08:20:52;1.83;;;0.98;;
20417;SDS011;10368;51.436;6.774;2022-07-04T08:23:27;2.03;;;0.85;;
20417;SDS011;10368;51.436;6.774;2022-07-04T08:25:55;2.75;;;1.00;;
20417;SDS011;10368;51.436;6.774;2022-07-04T08:28:22;4.00;;;1.27;;
20417;SDS011;10368;51.436;6.774;2022-07-04T08:30:49;1.33;;;0.73;;
20417;SDS011;10368;51.436;6.774;2022-07-04T08:33:17;1.35;;;0.80;;
20417;SDS011;10368;51.436;6.774;2022-07-04T08:35:48;2.72;;;0.88;;
20417;SDS011;10368;51.436;6.774;2022-07-04T08:38:16;1.60;;;0.90;;
20417;SDS011;10368;51.436;6.774;2022-07-04T08:40:44;2.55;;;0.90;;
20417;SDS011;10368;51.436;6.774;2022-07-04T08:43:14;1.73;;;1.02;;
20417;SDS011;10368;51.436;6.774;2022-07-04T08:45:42;3.90;;;1.10;;
20417;SDS011;10368;51.436;6.774;2022-07-04T08:48:37;2.42;;;0.90;;
20417;SDS011;10368;51.436;6.774;2022-07-04T08:51:19;3.92;;;0.80;;
20417;SDS011;10368;51.436;6.774;2022-07-04T08:53:49;4.05;;;1.15;;
20417;SDS011;10368;51.436;6.774;2022-07-04T08:56:21;2.42;;;1.23;;
20417;SDS011;10368;51.436;6.774;2022-07-04T08:59:07;2.38;;;0.85;;
20417;SDS011;10368;51.436;6.774;2022-07-04T09:01:35;2.35;;;0.73;;
20417;SDS011;10368;51.436;6.774;2022-07-04T09:04:03;2.00;;;0.90;;
20417;SDS011;10368;51.436;6.774;2022-07-04T09:06:31;0.98;;;0.80;;
20417;SDS011;10368;51.436;6.774;2022-07-04T09:08:58;1.60;;;1.10;;
20417;SDS011;10368;51.436;6.774;2022-07-04T09:11:26;1.25;;;1.15;;
20417;SDS011;10368;51.436;6.774;2022-07-04T09:13:54;1.75;;;0.90;;
20417;SDS011;10368;51.436;6.774;2022-07-04T09:16:23;3.13;;;0.80;;
20417;SDS011;10368;51.436;6.774;2022-07-04T09:18:51;1.58;;;1.00;;
20417;SDS011;10368;51.436;6.774;2022-07-04T09:21:21;4.25;;;1.17;;
20417;SDS011;10368;51.436;6.774;2022-07-04T09:23:50;3.50;;;1.23;;
20417;SDS011;10368;51.436;6.774;2022-07-04T09:26:19;2.15;;;0.65;;
20417;SDS011;10368;51.436;6.774;2022-07-04T09:28:54;1.70;;;0.80;;
20417;SDS011;10368;51.436;6.774;2022-07-04T09:31:24;1.90;;;1.00;;
20417;SDS011;10368;51.436;6.774;2022-07-04T09:33:53;0.85;;;0.80;;
20417;SDS011;10368;51.436;6.774;2022-07-04T09:36:22;1.98;;;0.80;;
20417;SDS011;10368;51.436;6.774;2022-07-04T09:39:10;3.58;;;1.25;;
20417;SDS011;10368;51.436;6.774;2022-07-04T09:41:54;2.55;;;1.00;;
20417;SDS011;10368;51.436;6.774;2022-07-04T09:44:23;1.33;;;0.90;;
20417;SDS011;10368;51.436;6.774;2022-07-04T09:46:51;2.25;;;0.95;;
20417;SDS011;10368;51.436;6.774;2022-07-04T09:49:18;1.58;;;1.23;;
20417;SDS011;10368;51.436;6.774;2022-07-04T09:51:50;2.67;;;1.23;;
20417;SDS011;10368;51.436;6.774;2022-07-04T09:54:18;2.30;;;1.58;;
20417;SDS011;10368;51.436;6.774;2022-07-04T09:56:51;1.45;;;1.00;;
20417;SDS011;10368;51.436;6.774;2022-07-04T09:59:19;3.22;;;1.00;;
20417;SDS011;10368;51.436;6.774;2022-07-04T10:01:48;2.10;;;1.10;;
20417;SDS011;10368;51.436;6.774;2022-07-04T10:04:15;4.00;;;1.23;;
20417;SDS011;10368;51.436;6.774;2022-07-04T10:06:43;2.47;;;0.85;;
20417;SDS011;10368;51.436;6.774;2022-07-04T10:09:12;2.42;;;1.30;;
20417;SDS011;10368;51.436;6.774;2022-07-04T10:11:41;4.18;;;1.00;;
20417;SDS011;10368;51.436;6.774;2022-07-04T10:14:09;1.05;;;0.98;;
20417;SDS011;10368;51.436;6.774;2022-07-04T10:16:37;2.35;;;1.10;;
20417;SDS011;10368;51.436;6.774;2022-07-04T10:19:06;2.13;;;1.20;;
20417;SDS011;10368;51.436;6.774;2022-07-04T10:21:33;2.53;;;1.08;;
20417;SDS011;10368;51.436;6.774;2022-07-04T10:24:01;2.95;;;1.17;;
20417;SDS011;10368;51.436;6.774;2022-07-04T10:26:32;1.48;;;0.80;;
20417;SDS011;10368;51.436;6.774;2022-07-04T10:28:59;2.00;;;0.80;;
20417;SDS011;10368;51.436;6.774;2022-07-04T10:31:28;2.10;;;1.08;;
20417;SDS011;10368;51.436;6.774;2022-07-04T10:33:56;1.75;;;0.90;;
20417;SDS011;10368;51.436;6.774;2022-07-04T10:36:25;2.90;;;1.20;;
20417;SDS011;10368;51.436;6.774;2022-07-04T10:39:00;1.95;;;1.20;;
20417;SDS011;10368;51.436;6.774;2022-07-04T10:41:28;3.08;;;1.50;;
20417;SDS011;10368;51.436;6.774;2022-07-04T10:44:05;2.97;;;1.17;;
20417;SDS011;10368;51.436;6.774;2022-07-04T10:46:36;3.97;;;1.48;;
20417;SDS011;10368;51.436;6.774;2022-07-04T10:54:02;1.05;;;0.60;;
20417;SDS011;10368;51.436;6.774;2022-07-04T11:01:49;4.22;;;1.10;;
20417;SDS011;10368;51.436;6.774;2022-07-04T11:07:54;3.17;;;0.90;;
20417;SDS011;10368;51.436;6.774;2022-07-04T11:17:54;1.58;;;1.02;;
20417;SDS011;10368;51.436;6.774;2022-07-04T11:20:22;2.67;;;1.08;;
20417;SDS011;10368;51.436;6.774;2022-07-04T11:22:50;3.03;;;1.23;;
20417;SDS011;10368;51.436;6.774;2022-07-04T11:25:17;1.98;;;0.82;;
20417;SDS011;10368;51.436;6.774;2022-07-04T11:27:45;1.83;;;0.93;;
20417;SDS011;10368;51.436;6.774;2022-07-04T11:30:12;2.90;;;1.00;;
20417;SDS011;10368;51.436;6.774;2022-07-04T11:32:41;2.03;;;1.10;;
20417;SDS011;10368;51.436;6.774;2022-07-04T11:35:08;1.92;;;0.80;;
20417;SDS011;10368;51.436;6.774;2022-07-04T11:37:36;1.33;;;1.05;;
20417;SDS011;10368;51.436;6.774;2022-07-04T11:40:03;2.13;;;0.80;;
20417;SDS011;10368;51.436;6.774;2022-07-04T11:43:06;2.60;;;1.50;;
20417;SDS011;10368;51.436;6.774;2022-07-04T11:45:52;4.25;;;0.95;;
20417;SDS011;10368;51.436;6.774;2022-07-04T11:48:23;2.45;;;0.85;;
20417;SDS011;10368;51.436;6.774;2022-07-04T11:50:51;1.45;;;0.90;;
20417;SDS011;10368;51.436;6.774;2022-07-04T11:53:18;0.80;;;0.80;;
20417;SDS011;10368;51.436;6.774;2022-07-04T11:55:53;1.63;;;1.20;;
20417;SDS011;10368;51.436;6.774;2022-07-04T11:58:22;4.13;;;1.10;;
20417;SDS011;10368;51.436;6.774;2022-07-04T12:00:50;3.17;;;1.48;;
20417;SDS011;10368;51.436;6.774;2022-07-04T12:03:18;1.70;;;0.80;;
20417;SDS011;10368;51.436;6.774;2022-07-04T12:05:46;2.33;;;1.35;;
20417;SDS011;10368;51.436;6.774;2022-07-04T12:08:15;2.67;;;1.25;;
20417;SDS011;10368;51.436;6.774;2022-07-04T12:10:51;1.65;;;1.27;;
20417;SDS011;10368;51.436;6.774;2022-07-04T12:13:19;1.45;;;0.90;;
20417;SDS011;10368;51.436;6.774;2022-07-04T12:15:48;1.13;;;1.00;;
20417;SDS011;10368;51.436;6.774;2022-07-04T12:20:47;0.98;;;0.98;;
20417;SDS011;10368;51.436;6.774;2022-07-04T12:23:15;3.28;;;1.20;;
20417;SDS011;10368;51.436;6.774;2022-07-04T12:25:44;2.60;;;0.70;;
20417;SDS011;10368;51.436;6.774;2022-07-04T12:28:13;1.75;;;1.00;;
20417;SDS011;10368;51.436;6.774;2022-07-04T12:33:18;6.53;;;1.30;;
20417;SDS011;10368;51.436;6.774;2022-07-04T12:40:52;1.33;;;1.10;;
20417;SDS011;10368;51.436;6.774;2022-07-04T12:43:20;2.95;;;1.13;;
20417;SDS011;10368;51.436;6.774;2022-07-04T12:45:49;2.50;;;0.80;;
20417;SDS011;10368;51.436;6.774;2022-07-04T12:48:24;1.67;;;1.00;;
20417;SDS011;10368;51.436;6.774;2022-07-04T12:50:53;1.85;;;1.55;;
20417;SDS011;10368;51.436;6.774;2022-07-04T12:53:21;3.28;;;1.80;;
20417;SDS011;10368;51.436;6.774;2022-07-04T12:55:48;2.60;;;1.17;;
20417;SDS011;10368;51.436;6.774;2022-07-04T12:58:16;4.25;;;1.05;;
20417;SDS011;10368;51.436;6.774;2022-07-04T13:00:46;1.52;;;1.13;;
20417;SDS011;10368;51.436;6.774;2022-07-04T13:03:14;2.70;;;1.27;;
20417;SDS011;10368;51.436;6.774;2022-07-04T13:05:42;4.13;;;1.23;;
20417;SDS011;10368;51.436;6.774;2022-07-04T13:08:10;2.72;;;1.13;;
20417;SDS011;10368;51.436;6.774;2022-07-04T13:10:38;2.58;;;1.20;;
20417;SDS011;10368;51.436;6.774;2022-07-04T13:13:05;6.43;;;0.98;;
20417;SDS011;10368;51.436;6.774;2022-07-04T13:15:33;4.22;;;1.35;;
20417;SDS011;10368;51.436;6.774;2022-07-04T13:18:00;2.47;;;1.10;;
20417;SDS011;10368;51.436;6.774;2022-07-04T13:20:28;1.17;;;0.98;;
20417;SDS011;10368;51.436;6.774;2022-07-04T13:22:55;2.95;;;2.00;;
20417;SDS011;10368;51.436;6.774;2022-07-04T13:25:23;1.50;;;0.88;;
20417;SDS011;10368;51.436;6.774;2022-07-04T13:27:50;3.08;;;1.20;;
20417;SDS011;10368;51.436;6.774;2022-07-04T13:30:17;4.55;;;1.75;;
20417;SDS011;10368;51.436;6.774;2022-07-04T13:32:45;1.05;;;0.88;;
20417;SDS011;10368;51.436;6.774;2022-07-04T13:35:12;2.80;;;1.10;;
20417;SDS011;10368;51.436;6.774;2022-07-04T13:37:40;2.78;;;1.00;;
20417;SDS011;10368;51.436;6.774;2022-07-04T13:40:08;2.40;;;1.10;;
20417;SDS011;10368;51.436;6.774;2022-07-04T13:42:36;2.63;;;0.90;;
20417;SDS011;10368;51.436;6.774;2022-07-04T13:45:22;3.05;;;1.20;;
20417;SDS011;10368;51.436;6.774;2022-07-04T13:47:49;1.35;;;0.80;;
20417;SDS011;10368;51.436;6.774;2022-07-04T13:50:20;3.70;;;1.08;;
20417;SDS011;10368;51.436;6.774;2022-07-04T13:52:49;2.95;;;1.10;;
20417;SDS011;10368;51.436;6.774;2022-07-04T13:55:17;2.97;;;1.05;;
20417;SDS011;10368;51.436;6.774;2022-07-04T13:57:44;2.83;;;1.70;;
20417;SDS011;10368;51.436;6.774;2022-07-04T14:00:12;1.55;;;0.95;;
20417;SDS011;10368;51.436;6.774;2022-07-04T14:02:40;1.10;;;0.90;;
20417;SDS011;10368;51.436;6.774;2022-07-04T14:05:08;2.88;;;1.13;;
20417;SDS011;10368;51.436;6.774;2022-07-04T14:07:36;4.18;;;1.30;;
20417;SDS011;10368;51.436;6.774;2022-07-04T14:10:04;3.45;;;1.10;;
20417;SDS011;10368;51.436;6.774;2022-07-04T14:12:31;3.00;;;0.80;;
20417;SDS011;10368;51.436;6.774;2022-07-04T14:14:58;1.45;;;0.95;;
20417;SDS011;10368;51.436;6.774;2022-07-04T14:17:26;1.52;;;0.90;;
20417;SDS011;10368;51.436;6.774;2022-07-04T14:20:05;3.13;;;2.80;;
20417;SDS011;10368;51.436;6.774;2022-07-04T14:22:38;5.70;;;1.40;;
20417;SDS011;10368;51.436;6.774;2022-07-04T14:25:06;2.30;;;1.63;;
20417;SDS011;10368;51.436;6.774;2022-07-04T14:27:34;3.47;;;1.63;;
20417;SDS011;10368;51.436;6.774;2022-07-04T14:30:02;2.85;;;2.47;;
20417;SDS011;10368;51.436;6.774;2022-07-04T14:32:29;4.43;;;1.00;;
20417;SDS011;10368;51.436;6.774;2022-07-04T14:34:57;1.92;;;1.63;;
20417;SDS011;10368;51.436;6.774;2022-07-04T14:37:24;1.35;;;0.80;;
20417;SDS011;10368;51.436;6.774;2022-07-04T14:39:51;1.95;;;1.13;;
20417;SDS011;10368;51.436;6.774;2022-07-04T14:42:19;2.42;;;1.70;;
20417;SDS011;10368;51.436;6.774;2022-07-04T14:44:46;1.20;;;1.00;;
20417;SDS011;10368;51.436;6.774;2022-07-04T14:47:14;1.75;;;1.35;;
20417;SDS011;10368;51.436;6.774;2022-07-04T14:49:42;3.85;;;1.38;;
20417;SDS011;10368;51.436;6.774;2022-07-04T14:52:11;4.18;;;0.98;;
20417;SDS011;10368;51.436;6.774;2022-07-04T14:54:38;3.28;;;1.00;;
20417;SDS011;10368;51.436;6.774;2022-07-04T14:57:06;2.47;;;0.82;;
20417;SDS011;10368;51.436;6.774;2022-07-04T14:59:33;1.25;;;1.10;;
20417;SDS011;10368;51.436;6.774;2022-07-04T15:02:04;8.82;;;1.10;;
20417;SDS011;10368;51.436;6.774;2022-07-04T15:04:32;2.63;;;1.20;;
20417;SDS011;10368;51.436;6.774;2022-07-04T15:06:59;2.45;;;1.00;;
20417;SDS011;10368;51.436;6.774;2022-07-04T15:09:26;1.45;;;1.02;;
20417;SDS011;10368;51.436;6.774;2022-07-04T15:11:54;2.85;;;1.10;;
20417;SDS011;10368;51.436;6.774;2022-07-04T15:14:21;3.20;;;1.00;;
20417;SDS011;10368;51.436;6.774;2022-07-04T15:16:50;1.77;;;0.88;;
20417;SDS011;10368;51.436;6.774;2022-07-04T15:19:17;3.65;;;1.38;;
20417;SDS011;10368;51.436;6.774;2022-07-04T15:21:45;2.50;;;1.10;;
20417;SDS011;10368;51.436;6.774;2022-07-04T15:24:31;3.35;;;0.80;;
20417;SDS011;10368;51.436;6.774;2022-07-04T15:26:59;2.92;;;1.15;;
20417;SDS011;10368;51.436;6.774;2022-07-04T15:29:26;1.00;;;0.82;;